createdAt,value
2023-03-07T00:01:10.146Z,2.80
2023-03-07T00:03:39.101Z,0.60
2023-03-07T00:06:11.549Z,5.20
2023-03-07T00:08:39.800Z,2.40
2023-03-07T00:11:09.927Z,2.70
2023-03-07T00:13:39.643Z,2.60
2023-03-07T00:16:09.710Z,2.60
2023-03-07T00:18:38.172Z,2.70
2023-03-07T00:21:09.600Z,2.60
2023-03-07T00:23:39.811Z,2.90
2023-03-07T00:26:09.747Z,2.60
2023-03-07T00:28:37.990Z,3.60
2023-03-07T00:31:08.608Z,4.60
2023-03-07T00:33:37.000Z,2.50
2023-03-07T00:36:07.280Z,2.50
2023-03-07T00:38:37.250Z,2.50
2023-03-07T00:41:07.739Z,4.60
2023-03-07T00:43:38.984Z,2.60
2023-03-07T00:46:07.500Z,2.60
2023-03-07T00:48:37.606Z,3.70
2023-03-07T00:51:08.019Z,2.60
2023-03-07T00:53:38.041Z,2.50
2023-03-07T00:56:08.340Z,3.20
2023-03-07T00:58:37.370Z,2.50
2023-03-07T01:01:06.939Z,3.50
2023-03-07T01:03:36.045Z,2.60
2023-03-07T01:06:05.384Z,2.80
2023-03-07T01:08:34.062Z,2.60
2023-03-07T01:11:07.001Z,2.70
2023-03-07T01:13:36.412Z,2.70
2023-03-07T01:16:12.575Z,2.70
2023-03-07T01:18:41.563Z,2.80
2023-03-07T01:21:15.198Z,2.70
2023-03-07T01:23:43.690Z,2.90
2023-03-07T01:26:15.458Z,2.90
2023-03-07T01:28:43.816Z,2.90
2023-03-07T01:31:12.336Z,3.00
2023-03-07T01:33:40.499Z,3.50
2023-03-07T01:36:17.541Z,3.10
2023-03-07T01:38:45.826Z,2.80
2023-03-07T01:41:16.057Z,2.80
2023-03-07T01:43:44.387Z,2.70
2023-03-07T01:46:52.866Z,2.90
2023-03-07T01:49:26.032Z,2.90
2023-03-07T01:51:59.232Z,2.80
2023-03-07T01:54:28.491Z,3.00
2023-03-07T01:56:59.572Z,3.10
2023-03-07T01:59:32.991Z,2.90
2023-03-07T02:02:04.773Z,3.50
2023-03-07T02:04:38.563Z,2.80
2023-03-07T02:07:10.094Z,2.80
2023-03-07T02:09:39.731Z,2.70
2023-03-07T02:12:10.007Z,3.00
2023-03-07T02:14:38.258Z,2.70
2023-03-07T02:17:06.861Z,2.80
2023-03-07T02:19:49.127Z,2.80
2023-03-07T02:22:19.844Z,2.80
2023-03-07T02:24:54.631Z,2.80
2023-03-07T02:27:25.645Z,3.00
2023-03-07T02:29:54.217Z,2.80
2023-03-07T02:32:22.766Z,2.80
2023-03-07T02:34:50.901Z,2.80
2023-03-07T02:37:22.940Z,2.80
2023-03-07T02:39:51.142Z,2.80
2023-03-07T02:42:23.912Z,2.80
2023-03-07T02:44:58.390Z,2.40
2023-03-07T02:47:26.563Z,2.80
2023-03-07T02:49:55.107Z,2.90
2023-03-07T02:52:24.625Z,2.70
2023-03-07T02:54:52.697Z,2.90
2023-03-07T02:57:20.962Z,2.90
2023-03-07T02:59:50.481Z,2.90
2023-03-07T03:02:18.556Z,2.90
2023-03-07T03:04:46.713Z,2.90
2023-03-07T03:07:14.857Z,2.90
2023-03-07T03:09:42.931Z,2.70
2023-03-07T03:12:11.112Z,2.90
2023-03-07T03:14:39.172Z,2.80
2023-03-07T03:17:08.612Z,2.70
2023-03-07T03:19:36.842Z,2.60
2023-03-07T03:22:05.193Z,2.60
2023-03-07T03:24:33.231Z,2.60
2023-03-07T03:27:01.278Z,2.50
2023-03-07T03:29:29.328Z,2.60
2023-03-07T03:31:57.352Z,2.50
2023-03-07T03:34:26.944Z,2.60
2023-03-07T03:36:55.012Z,2.50
2023-03-07T03:39:23.251Z,2.40
2023-03-07T03:41:51.438Z,2.20
2023-03-07T03:44:19.551Z,2.40
2023-03-07T03:46:49.151Z,2.30
2023-03-07T03:49:17.474Z,2.50
2023-03-07T03:51:46.910Z,2.80
2023-03-07T03:54:15.033Z,2.40
2023-03-07T03:56:43.103Z,2.70
2023-03-07T03:59:11.164Z,3.30
2023-03-07T04:01:39.282Z,2.90
2023-03-07T04:04:07.346Z,2.90
2023-03-07T04:06:36.371Z,2.90
2023-03-07T04:09:06.015Z,2.80
2023-03-07T04:11:34.436Z,3.00
2023-03-07T04:14:02.548Z,2.90
2023-03-07T04:16:30.803Z,2.90
2023-03-07T04:18:59.118Z,2.90
2023-03-07T04:21:27.353Z,2.90
2023-03-07T04:23:57.263Z,2.90
2023-03-07T04:26:47.466Z,2.90
2023-03-07T04:29:18.665Z,2.80
2023-03-07T04:31:53.044Z,2.80
2023-03-07T04:34:30.403Z,2.90
2023-03-07T04:36:58.478Z,2.90
2023-03-07T04:39:59.480Z,2.90
2023-03-07T04:43:08.390Z,2.90
2023-03-07T04:45:43.969Z,2.70
2023-03-07T04:48:15.125Z,2.60
2023-03-07T04:50:46.252Z,2.60
2023-03-07T04:53:23.546Z,2.60
2023-03-07T04:57:05.964Z,2.60
2023-03-07T04:59:14.798Z,2.60
2023-03-07T05:02:15.029Z,2.60
2023-03-07T05:04:45.988Z,2.80
2023-03-07T05:07:23.176Z,2.80
2023-03-07T05:09:51.624Z,2.50
2023-03-07T05:12:50.663Z,2.70
2023-03-07T05:18:44.081Z,2.70
2023-03-07T05:24:03.408Z,2.70
2023-03-07T05:27:20.694Z,2.60
2023-03-07T05:33:36.839Z,2.60
2023-03-07T05:36:05.473Z,2.70
2023-03-07T05:38:33.528Z,2.70
2023-03-07T05:41:01.715Z,2.60
2023-03-07T05:43:29.818Z,2.00
2023-03-07T05:45:57.940Z,2.60
2023-03-07T05:48:26.197Z,2.60
2023-03-07T05:50:56.037Z,2.60
2023-03-07T05:53:24.246Z,2.60
2023-03-07T05:55:52.325Z,2.60
2023-03-07T05:58:20.493Z,2.70
2023-03-07T06:00:49.473Z,2.70
2023-03-07T06:03:17.705Z,3.20
2023-03-07T06:05:45.854Z,2.50
2023-03-07T06:08:15.338Z,2.70
2023-03-07T06:10:43.533Z,2.70
2023-03-07T06:13:16.628Z,2.90
2023-03-07T06:15:45.053Z,2.40
2023-03-07T06:18:14.714Z,2.80
2023-03-07T06:20:43.047Z,2.90
2023-03-07T06:23:13.279Z,2.90
2023-03-07T06:25:42.910Z,2.90
2023-03-07T06:28:11.076Z,3.00
2023-03-07T06:30:39.407Z,3.00
2023-03-07T06:33:07.962Z,2.80
2023-03-07T06:35:39.949Z,3.10
2023-03-07T06:38:08.338Z,4.40
2023-03-07T06:40:36.519Z,3.20
2023-03-07T06:43:06.209Z,3.20
2023-03-07T06:45:34.667Z,3.30
2023-03-07T06:48:02.766Z,3.30
2023-03-07T06:50:35.365Z,3.10
2023-03-07T06:53:03.969Z,3.10
2023-03-07T06:55:32.060Z,3.50
2023-03-07T06:58:00.237Z,3.20
2023-03-07T07:00:30.958Z,3.20
2023-03-07T07:03:00.785Z,3.20
2023-03-07T07:05:29.027Z,3.30
2023-03-07T07:07:57.132Z,3.30
2023-03-07T07:10:25.290Z,3.30
2023-03-07T07:12:56.650Z,3.40
2023-03-07T07:15:24.965Z,3.60
2023-03-07T07:17:54.940Z,4.60
2023-03-07T07:20:23.424Z,3.80
2023-03-07T07:22:51.580Z,3.90
2023-03-07T07:25:19.675Z,4.10
2023-03-07T07:27:47.803Z,4.20
2023-03-07T07:30:16.326Z,4.00
2023-03-07T07:32:44.907Z,4.40
2023-03-07T07:35:14.668Z,4.50
2023-03-07T07:37:42.746Z,4.50
2023-03-07T07:40:12.103Z,4.40
2023-03-07T07:42:40.299Z,4.30
2023-03-07T07:45:09.236Z,4.00
2023-03-07T07:47:37.355Z,3.90
2023-03-07T07:50:06.094Z,4.00
2023-03-07T07:52:35.588Z,4.10
2023-03-07T07:55:03.741Z,4.00
2023-03-07T07:57:31.831Z,4.20
2023-03-07T08:00:00.009Z,4.30
2023-03-07T08:02:28.855Z,4.50
2023-03-07T08:04:57.028Z,4.60
2023-03-07T08:07:25.140Z,4.80
2023-03-07T08:09:54.562Z,5.20
2023-03-07T08:12:22.649Z,4.80
2023-03-07T08:14:50.688Z,4.80
2023-03-07T08:17:18.798Z,4.70
2023-03-07T08:19:46.883Z,4.80
2023-03-07T08:22:14.982Z,4.90
2023-03-07T08:24:43.024Z,4.80
2023-03-07T08:27:12.634Z,4.80
2023-03-07T08:29:40.725Z,4.90
2023-03-07T08:32:11.621Z,4.90
2023-03-07T08:34:40.126Z,4.60
2023-03-07T08:37:08.201Z,4.70
2023-03-07T08:39:36.456Z,4.80
2023-03-07T08:42:04.697Z,5.00
2023-03-07T08:44:34.208Z,4.90
2023-03-07T08:47:02.367Z,4.80
2023-03-07T08:49:30.544Z,5.20
2023-03-07T08:51:58.602Z,5.50
2023-03-07T08:54:26.725Z,5.30
2023-03-07T08:56:54.862Z,5.50
2023-03-07T08:59:23.171Z,5.60
2023-03-07T09:01:52.744Z,5.30
2023-03-07T09:04:20.952Z,5.10
2023-03-07T09:06:49.106Z,6.00
2023-03-07T09:09:17.416Z,5.70
2023-03-07T09:11:45.618Z,5.00
2023-03-07T09:14:14.850Z,5.00
2023-03-07T09:16:43.021Z,4.90
2023-03-07T09:19:12.633Z,5.00
2023-03-07T09:21:40.874Z,5.10
2023-03-07T09:24:09.260Z,4.90
2023-03-07T09:26:37.425Z,4.90
2023-03-07T09:29:05.507Z,5.00
2023-03-07T09:31:33.726Z,5.00
2023-03-07T09:34:01.829Z,4.70
2023-03-07T09:36:31.324Z,4.40
2023-03-07T09:38:59.421Z,4.60
2023-03-07T09:41:50.150Z,4.80
2023-03-07T09:44:28.279Z,4.90
2023-03-07T09:47:10.989Z,5.60
2023-03-07T09:49:45.706Z,4.70
2023-03-07T09:52:18.164Z,4.70
2023-03-07T09:54:51.719Z,4.80
2023-03-07T09:57:24.281Z,4.60
2023-03-07T09:59:56.890Z,4.80
2023-03-07T10:02:30.378Z,5.00
2023-03-07T10:05:07.388Z,5.20
2023-03-07T10:07:37.419Z,5.20
2023-03-07T10:10:09.070Z,5.20
2023-03-07T10:12:52.637Z,5.20
2023-03-07T10:15:35.626Z,4.90
2023-03-07T10:18:16.201Z,4.80
2023-03-07T10:20:49.911Z,4.70
2023-03-07T10:23:56.629Z,4.60
2023-03-07T10:26:31.152Z,4.70
2023-03-07T10:29:01.134Z,4.70
2023-03-07T10:31:34.768Z,4.90
2023-03-07T10:34:22.602Z,4.90
2023-03-07T10:37:08.402Z,4.50
2023-03-07T10:39:43.595Z,4.50
2023-03-07T10:42:14.091Z,4.50
2023-03-07T10:44:45.361Z,4.40
2023-03-07T10:47:27.820Z,4.50
2023-03-07T10:50:01.381Z,4.90
2023-03-07T10:52:35.255Z,4.70
2023-03-07T10:55:35.212Z,4.80
2023-03-07T10:58:24.008Z,4.70
2023-03-07T11:01:19.490Z,4.80
2023-03-07T11:03:54.732Z,4.80
2023-03-07T11:06:39.108Z,4.70
2023-03-07T11:09:20.343Z,4.70
2023-03-07T11:11:53.925Z,4.80
2023-03-07T11:14:23.058Z,5.00
2023-03-07T11:16:53.833Z,4.80
2023-03-07T11:19:40.894Z,4.90
2023-03-07T11:22:21.941Z,4.80
2023-03-07T11:24:55.330Z,4.90
2023-03-07T11:27:31.451Z,4.60
2023-03-07T11:30:18.566Z,4.80
2023-03-07T11:32:58.622Z,4.70
2023-03-07T11:35:44.209Z,4.70
2023-03-07T11:38:20.504Z,4.80
2023-03-07T11:40:57.442Z,4.80
2023-03-07T11:43:41.902Z,4.80
2023-03-07T11:46:18.806Z,4.70
2023-03-07T11:48:57.416Z,4.80
2023-03-07T11:51:40.557Z,4.90
2023-03-07T11:54:16.327Z,4.70
2023-03-07T11:56:51.016Z,4.90
2023-03-07T11:59:57.078Z,5.10
2023-03-07T12:02:51.805Z,5.10
2023-03-07T12:05:41.321Z,4.80
2023-03-07T12:08:38.807Z,4.70
2023-03-07T12:11:36.397Z,4.80
2023-03-07T12:14:17.250Z,4.80
2023-03-07T12:16:54.076Z,4.70
2023-03-07T12:19:50.986Z,4.80
2023-03-07T12:22:28.550Z,4.80
2023-03-07T12:25:12.608Z,4.80
2023-03-07T12:27:46.982Z,4.80
2023-03-07T12:30:19.835Z,4.80
2023-03-07T12:32:51.694Z,4.90
2023-03-07T12:35:25.681Z,4.90
2023-03-07T12:38:00.181Z,5.00
2023-03-07T12:40:35.312Z,5.20
2023-03-07T12:43:14.869Z,5.40
2023-03-07T12:45:48.444Z,5.60
2023-03-07T12:48:25.646Z,5.90
2023-03-07T12:51:01.369Z,5.90
2023-03-07T12:53:36.187Z,5.90
2023-03-07T12:56:11.386Z,6.10
2023-03-07T12:58:43.931Z,6.30
2023-03-07T13:01:16.230Z,6.50
2023-03-07T13:03:53.625Z,6.40
2023-03-07T13:06:23.586Z,6.30
2023-03-07T13:08:54.634Z,6.30
2023-03-07T13:11:25.193Z,6.20
2023-03-07T13:13:59.517Z,5.90
2023-03-07T13:16:39.522Z,5.90
2023-03-07T13:19:51.592Z,5.70
2023-03-07T13:22:56.480Z,5.80
2023-03-07T13:25:59.337Z,5.80
2023-03-07T13:28:45.627Z,5.50
2023-03-07T13:31:42.772Z,5.60
2023-03-07T13:34:48.829Z,5.40
2023-03-07T13:38:05.191Z,5.60
2023-03-07T13:40:55.893Z,5.80
2023-03-07T13:43:59.788Z,5.80
2023-03-07T13:46:55.252Z,6.00
2023-03-07T13:49:41.526Z,6.20
2023-03-07T13:52:46.583Z,6.40
2023-03-07T13:55:29.014Z,6.60
2023-03-07T13:58:07.126Z,6.70
2023-03-07T14:00:39.472Z,6.80
2023-03-07T14:03:27.616Z,6.40
2023-03-07T14:05:58.183Z,6.50
2023-03-07T14:08:31.047Z,6.70
2023-03-07T14:11:03.453Z,6.80
2023-03-07T14:13:54.803Z,6.90
2023-03-07T14:16:39.522Z,6.70
2023-03-07T14:19:18.017Z,6.60
2023-03-07T14:21:56.335Z,6.60
2023-03-07T14:24:56.096Z,6.60
2023-03-07T14:27:25.804Z,6.50
2023-03-07T14:29:57.065Z,6.50
2023-03-07T14:32:29.424Z,6.50
2023-03-07T14:34:58.256Z,6.40
2023-03-07T14:37:27.674Z,6.50
2023-03-07T14:40:27.644Z,6.60
2023-03-07T14:43:08.742Z,6.90
2023-03-07T14:45:41.898Z,7.00
2023-03-07T14:48:39.726Z,7.10
2023-03-07T14:51:15.237Z,7.50
2023-03-07T14:53:44.030Z,7.80
2023-03-07T14:56:12.600Z,8.00
2023-03-07T14:58:50.832Z,7.80
2023-03-07T15:01:20.657Z,7.60
2023-03-07T15:03:50.327Z,7.70
2023-03-07T15:06:20.940Z,7.50
2023-03-07T15:08:51.181Z,7.80
2023-03-07T15:11:27.679Z,7.90
2023-03-07T15:14:00.490Z,8.80
2023-03-07T15:16:31.676Z,8.90
2023-03-07T15:19:05.402Z,8.80
2023-03-07T15:21:40.042Z,9.30
2023-03-07T15:24:18.286Z,8.80
2023-03-07T15:26:51.384Z,8.70
2023-03-07T15:29:23.104Z,9.10
2023-03-07T15:31:54.595Z,8.90
2023-03-07T15:34:26.186Z,8.50
2023-03-07T15:36:54.948Z,8.30
2023-03-07T15:39:28.987Z,8.20
2023-03-07T15:42:05.969Z,7.80
2023-03-07T15:44:36.440Z,7.70
2023-03-07T15:47:13.660Z,7.30
2023-03-07T15:49:47.369Z,7.40
2023-03-07T15:52:30.165Z,7.60
2023-03-07T15:55:00.111Z,7.60
2023-03-07T15:57:32.122Z,8.00
2023-03-07T16:00:03.638Z,8.00
2023-03-07T16:02:45.980Z,8.30
2023-03-07T16:05:37.581Z,8.40
2023-03-07T16:08:13.356Z,8.10
2023-03-07T16:10:47.192Z,7.50
2023-03-07T16:13:17.883Z,7.10
2023-03-07T16:15:47.503Z,7.20
2023-03-07T16:18:23.729Z,7.70
2023-03-07T16:20:51.771Z,7.10
2023-03-07T16:23:19.796Z,7.00
2023-03-07T16:25:48.131Z,7.60
2023-03-07T16:28:16.251Z,6.90
2023-03-07T16:30:46.270Z,7.10
2023-03-07T16:33:16.751Z,6.90
2023-03-07T16:35:45.366Z,7.00
2023-03-07T16:38:13.497Z,7.10
2023-03-07T16:40:43.448Z,6.70
2023-03-07T16:43:31.719Z,6.60
2023-03-07T16:46:00.247Z,6.30
2023-03-07T16:48:29.782Z,6.30
2023-03-07T16:50:57.909Z,6.50
2023-03-07T16:53:26.682Z,6.30
2023-03-07T16:55:55.726Z,6.40
2023-03-07T16:58:27.828Z,6.30
2023-03-07T17:00:55.987Z,6.30
2023-03-07T17:03:24.200Z,6.30
2023-03-07T17:05:53.692Z,6.10
2023-03-07T17:08:21.732Z,5.90
2023-03-07T17:10:49.786Z,5.60
2023-03-07T17:13:19.763Z,5.80
2023-03-07T17:15:47.851Z,5.90
2023-03-07T17:18:15.954Z,5.50
2023-03-07T17:20:44.610Z,5.40
2023-03-07T17:23:14.180Z,5.40
2023-03-07T17:25:42.352Z,5.40
2023-03-07T17:28:15.232Z,5.40
2023-03-07T17:30:45.517Z,5.60
2023-03-07T17:33:14.996Z,5.30
2023-03-07T17:35:43.409Z,5.20
2023-03-07T17:38:12.974Z,5.50
2023-03-07T17:40:41.353Z,5.00
2023-03-07T17:43:09.509Z,4.90
2023-03-07T17:45:39.686Z,4.80
2023-03-07T17:48:08.404Z,4.80
2023-03-07T17:50:36.498Z,4.60
2023-03-07T17:53:04.606Z,4.60
2023-03-07T17:55:34.176Z,4.50
2023-03-07T17:58:02.301Z,4.40
2023-03-07T18:00:30.409Z,4.00
2023-03-07T18:02:58.609Z,3.80
2023-03-07T18:05:28.031Z,3.90
2023-03-07T18:07:56.850Z,3.50
2023-03-07T18:10:25.699Z,3.70
2023-03-07T18:12:55.255Z,3.80
2023-03-07T18:15:23.715Z,3.70
2023-03-07T18:17:52.027Z,4.10
2023-03-07T18:20:21.442Z,4.00
2023-03-07T18:22:50.173Z,4.10
2023-03-07T18:25:19.213Z,4.30
2023-03-07T18:27:47.915Z,6.90
2023-03-07T18:30:18.219Z,4.80
2023-03-07T18:32:46.523Z,4.70
2023-03-07T18:35:16.650Z,4.80
2023-03-07T18:37:45.491Z,4.80
2023-03-07T18:40:14.882Z,4.80
2023-03-07T18:42:43.496Z,4.80
2023-03-07T18:45:12.797Z,4.70
2023-03-07T18:47:42.296Z,4.60
2023-03-07T18:50:12.047Z,4.60
2023-03-07T18:52:40.229Z,4.60
2023-03-07T18:55:08.882Z,4.60
2023-03-07T18:57:37.051Z,4.70
2023-03-07T19:00:06.474Z,4.80
2023-03-07T19:02:34.668Z,4.70
2023-03-07T19:05:04.212Z,4.60
2023-03-07T19:07:32.436Z,4.80
2023-03-07T19:10:00.603Z,4.90
2023-03-07T19:12:28.818Z,4.90
2023-03-07T19:14:56.973Z,4.80
2023-03-07T19:17:25.414Z,4.90
2023-03-07T19:19:59.104Z,4.80
2023-03-07T19:22:30.244Z,4.80
2023-03-07T19:24:58.472Z,4.50
2023-03-07T19:27:28.075Z,4.70
2023-03-07T19:29:56.304Z,4.60
2023-03-07T19:32:24.504Z,4.80
2023-03-07T19:34:52.825Z,4.70
2023-03-07T19:37:20.982Z,4.60
2023-03-07T19:39:53.720Z,4.80
2023-03-07T19:42:21.861Z,4.80
2023-03-07T19:44:50.026Z,4.80
2023-03-07T19:47:18.192Z,4.90
2023-03-07T19:49:47.910Z,4.70
2023-03-07T19:52:16.461Z,4.50
2023-03-07T19:54:45.439Z,4.90
2023-03-07T19:57:16.138Z,4.70
2023-03-07T19:59:44.578Z,4.70
2023-03-07T20:02:14.217Z,4.70
2023-03-07T20:04:42.349Z,4.50
2023-03-07T20:07:10.509Z,4.50
2023-03-07T20:09:38.889Z,5.00
2023-03-07T20:12:07.535Z,4.50
2023-03-07T20:14:42.631Z,4.50
2023-03-07T20:17:11.861Z,4.50
2023-03-07T20:19:40.063Z,4.10
2023-03-07T20:22:08.198Z,4.20
2023-03-07T20:24:37.043Z,4.20
2023-03-07T20:27:05.328Z,4.30
2023-03-07T20:29:33.713Z,4.10
2023-03-07T20:32:03.257Z,4.10
2023-03-07T20:34:31.440Z,4.10
2023-03-07T20:36:59.590Z,4.00
2023-03-07T20:39:28.063Z,4.10
2023-03-07T20:41:56.477Z,4.10
2023-03-07T20:44:24.816Z,4.10
2023-03-07T20:46:53.125Z,4.00
2023-03-07T20:49:22.588Z,4.00
2023-03-07T20:51:50.699Z,3.70
2023-03-07T20:54:19.471Z,3.90
2023-03-07T20:56:48.491Z,4.10
2023-03-07T20:59:18.535Z,4.10
2023-03-07T21:01:47.045Z,4.20
2023-03-07T21:04:17.746Z,4.10
2023-03-07T21:06:48.893Z,3.80
2023-03-07T21:09:18.871Z,4.50
2023-03-07T21:11:49.040Z,4.00
2023-03-07T21:14:18.958Z,4.00
2023-03-07T21:16:47.103Z,4.10
2023-03-07T21:19:15.377Z,4.40
2023-03-07T21:21:43.663Z,4.10
2023-03-07T21:24:14.783Z,4.20
2023-03-07T21:26:42.862Z,4.20
2023-03-07T21:29:11.020Z,4.40
2023-03-07T21:31:39.647Z,4.30
2023-03-07T21:34:09.407Z,4.10
2023-03-07T21:36:37.476Z,4.30
2023-03-07T21:39:08.008Z,4.20
2023-03-07T21:41:37.723Z,4.00
2023-03-07T21:44:06.181Z,4.60
2023-03-07T21:46:34.596Z,4.20
2023-03-07T21:49:02.945Z,4.30
2023-03-07T21:51:31.159Z,4.00
2023-03-07T21:53:59.540Z,4.20
2023-03-07T21:56:27.842Z,4.00
2023-03-07T21:58:57.350Z,4.10
2023-03-07T22:01:28.603Z,4.20
2023-03-07T22:04:02.781Z,4.40
2023-03-07T22:06:31.060Z,4.40
2023-03-07T22:09:00.496Z,4.20
2023-03-07T22:11:28.958Z,4.40
2023-03-07T22:13:58.449Z,4.30
2023-03-07T22:16:26.621Z,4.40
2023-03-07T22:18:55.830Z,4.30
2023-03-07T22:21:26.071Z,4.40
2023-03-07T22:23:57.670Z,4.40
2023-03-07T22:26:26.384Z,4.50
2023-03-07T22:28:54.908Z,4.40
2023-03-07T22:31:24.537Z,4.40
2023-03-07T22:33:52.679Z,4.30
2023-03-07T22:36:20.811Z,4.30
2023-03-07T22:38:48.890Z,4.40
2023-03-07T22:41:18.627Z,4.40
2023-03-07T22:43:46.791Z,4.30
2023-03-07T22:46:15.029Z,4.30
2023-03-07T22:48:44.527Z,4.40
2023-03-07T22:51:14.518Z,4.30
2023-03-07T22:53:42.667Z,4.70
2023-03-07T22:56:16.461Z,4.30
2023-03-07T22:58:44.747Z,4.20
2023-03-07T23:01:14.507Z,4.10
2023-03-07T23:03:44.005Z,4.20
2023-03-07T23:06:12.867Z,4.30
2023-03-07T23:08:41.445Z,4.10
2023-03-07T23:11:12.091Z,4.10
2023-03-07T23:13:40.195Z,4.20
2023-03-07T23:16:10.869Z,4.50
2023-03-07T23:18:40.373Z,4.30
2023-03-07T23:21:11.537Z,4.30
2023-03-07T23:23:40.019Z,4.40
2023-03-07T23:26:08.608Z,4.30
2023-03-07T23:28:36.887Z,4.50
2023-03-07T23:31:05.007Z,4.20
2023-03-07T23:33:33.060Z,4.30
2023-03-07T23:36:01.239Z,4.00
2023-03-07T23:38:30.837Z,3.80
2023-03-07T23:40:59.963Z,4.10
2023-03-07T23:43:28.120Z,4.00
2023-03-07T23:45:56.256Z,4.10
2023-03-07T23:48:24.346Z,4.00
2023-03-07T23:50:52.422Z,4.00
2023-03-07T23:53:20.556Z,3.80
2023-03-07T23:55:50.004Z,3.90
2023-03-07T23:58:18.158Z,3.90
